sensor_id;sensor_type;location;lat;lon;timestamp;temperature;humidity
33761;DHT22;20084;47.912;19.044;2022-10-15T00:01:24;10.50;99.90
33761;DHT22;20084;47.912;19.044;2022-10-15T00:03:50;10.30;99.90
33761;DHT22;20084;47.912;19.044;2022-10-15T00:06:18;10.30;99.90
33761;DHT22;20084;47.912;19.044;2022-10-15T00:08:45;10.30;99.90
33761;DHT22;20084;47.912;19.044;2022-10-15T00:11:17;10.30;99.90
33761;DHT22;20084;47.912;19.044;2022-10-15T00:13:43;10.20;99.90
33761;DHT22;20084;47.912;19.044;2022-10-15T00:16:13;10.10;99.90
33761;DHT22;20084;47.912;19.044;2022-10-15T00:18:39;10.00;99.90
33761;DHT22;20084;47.912;19.044;2022-10-15T00:21:07;10.00;99.90
33761;DHT22;20084;47.912;19.044;2022-10-15T00:23:33;9.90;99.90
33761;DHT22;20084;47.912;19.044;2022-10-15T00:26:05;9.80;99.90
33761;DHT22;20084;47.912;19.044;2022-10-15T00:28:31;9.70;99.90
33761;DHT22;20084;47.912;19.044;2022-10-15T00:31:09;9.70;99.90
33761;DHT22;20084;47.912;19.044;2022-10-15T00:33:35;9.60;99.90
33761;DHT22;20084;47.912;19.044;2022-10-15T00:36:07;9.70;99.90
33761;DHT22;20084;47.912;19.044;2022-10-15T00:38:34;9.80;99.90
33761;DHT22;20084;47.912;19.044;2022-10-15T00:41:00;9.80;99.90
33761;DHT22;20084;47.912;19.044;2022-10-15T00:43:44;9.80;99.90
33761;DHT22;20084;47.912;19.044;2022-10-15T00:46:35;9.80;99.90
33761;DHT22;20084;47.912;19.044;2022-10-15T00:49:21;9.80;99.90
33761;DHT22;20084;47.912;19.044;2022-10-15T00:52:01;9.60;99.90
33761;DHT22;20084;47.912;19.044;2022-10-15T00:54:31;9.50;99.90
33761;DHT22;20084;47.912;19.044;2022-10-15T00:56:58;9.50;99.90
33761;DHT22;20084;47.912;19.044;2022-10-15T00:59:25;9.40;99.90
33761;DHT22;20084;47.912;19.044;2022-10-15T01:01:52;9.30;99.90
33761;DHT22;20084;47.912;19.044;2022-10-15T01:04:17;9.30;99.90
33761;DHT22;20084;47.912;19.044;2022-10-15T01:06:44;9.40;99.90
33761;DHT22;20084;47.912;19.044;2022-10-15T01:09:10;9.30;99.90
33761;DHT22;20084;47.912;19.044;2022-10-15T01:11:50;9.30;99.90
33761;DHT22;20084;47.912;19.044;2022-10-15T01:16:49;9.50;99.90
33761;DHT22;20084;47.912;19.044;2022-10-15T01:19:26;9.50;99.90
33761;DHT22;20084;47.912;19.044;2022-10-15T01:22:23;9.60;99.90
33761;DHT22;20084;47.912;19.044;2022-10-15T01:27:42;9.60;99.90
33761;DHT22;20084;47.912;19.044;2022-10-15T01:33:11;9.40;99.90
33761;DHT22;20084;47.912;19.044;2022-10-15T01:35:43;9.30;99.90
33761;DHT22;20084;47.912;19.044;2022-10-15T01:38:22;9.30;99.90
33761;DHT22;20084;47.912;19.044;2022-10-15T01:40:54;9.30;99.90
33761;DHT22;20084;47.912;19.044;2022-10-15T01:43:44;9.10;99.90
33761;DHT22;20084;47.912;19.044;2022-10-15T01:47:02;9.00;99.90
33761;DHT22;20084;47.912;19.044;2022-10-15T01:49:02;8.90;99.90
33761;DHT22;20084;47.912;19.044;2022-10-15T01:51:31;8.90;99.90
33761;DHT22;20084;47.912;19.044;2022-10-15T01:53:58;8.90;99.90
33761;DHT22;20084;47.912;19.044;2022-10-15T01:56:27;9.00;99.90
33761;DHT22;20084;47.912;19.044;2022-10-15T01:58:54;9.00;99.90
33761;DHT22;20084;47.912;19.044;2022-10-15T02:01:21;9.00;99.90
33761;DHT22;20084;47.912;19.044;2022-10-15T02:03:49;9.00;99.90
33761;DHT22;20084;47.912;19.044;2022-10-15T02:06:33;9.00;99.90
33761;DHT22;20084;47.912;19.044;2022-10-15T02:09:11;9.00;99.90
33761;DHT22;20084;47.912;19.044;2022-10-15T02:18:37;9.00;99.90
33761;DHT22;20084;47.912;19.044;2022-10-15T02:21:05;9.00;99.90
33761;DHT22;20084;47.912;19.044;2022-10-15T02:23:40;9.10;99.90
33761;DHT22;20084;47.912;19.044;2022-10-15T02:26:08;9.10;99.90
33761;DHT22;20084;47.912;19.044;2022-10-15T02:28:37;9.00;99.90
33761;DHT22;20084;47.912;19.044;2022-10-15T02:31:06;9.00;99.90
33761;DHT22;20084;47.912;19.044;2022-10-15T02:33:33;9.10;99.90
33761;DHT22;20084;47.912;19.044;2022-10-15T02:36:00;9.20;99.90
33761;DHT22;20084;47.912;19.044;2022-10-15T02:38:26;9.20;99.90
33761;DHT22;20084;47.912;19.044;2022-10-15T02:40:55;9.10;99.90
33761;DHT22;20084;47.912;19.044;2022-10-15T02:43:21;8.90;99.90
33761;DHT22;20084;47.912;19.044;2022-10-15T02:45:47;9.00;99.90
33761;DHT22;20084;47.912;19.044;2022-10-15T02:48:14;9.10;99.90
33761;DHT22;20084;47.912;19.044;2022-10-15T02:50:40;9.10;99.90
33761;DHT22;20084;47.912;19.044;2022-10-15T02:53:05;9.20;99.90
33761;DHT22;20084;47.912;19.044;2022-10-15T02:55:31;9.10;99.90
33761;DHT22;20084;47.912;19.044;2022-10-15T02:57:57;9.10;99.90
33761;DHT22;20084;47.912;19.044;2022-10-15T03:00:22;9.10;99.90
33761;DHT22;20084;47.912;19.044;2022-10-15T03:02:48;9.00;99.90
33761;DHT22;20084;47.912;19.044;2022-10-15T03:05:13;9.10;99.90
33761;DHT22;20084;47.912;19.044;2022-10-15T03:07:39;9.10;99.90
33761;DHT22;20084;47.912;19.044;2022-10-15T03:10:05;9.20;99.90
33761;DHT22;20084;47.912;19.044;2022-10-15T03:12:31;9.30;99.90
33761;DHT22;20084;47.912;19.044;2022-10-15T03:14:57;9.30;99.90
33761;DHT22;20084;47.912;19.044;2022-10-15T03:17:23;9.30;99.90
33761;DHT22;20084;47.912;19.044;2022-10-15T03:19:48;9.30;99.90
33761;DHT22;20084;47.912;19.044;2022-10-15T03:22:14;9.30;99.90
33761;DHT22;20084;47.912;19.044;2022-10-15T03:24:39;9.20;99.90
33761;DHT22;20084;47.912;19.044;2022-10-15T03:27:05;9.20;99.90
33761;DHT22;20084;47.912;19.044;2022-10-15T03:29:31;9.10;99.90
33761;DHT22;20084;47.912;19.044;2022-10-15T03:31:56;9.10;99.90
33761;DHT22;20084;47.912;19.044;2022-10-15T03:34:22;9.10;99.90
33761;DHT22;20084;47.912;19.044;2022-10-15T03:36:47;9.10;99.90
33761;DHT22;20084;47.912;19.044;2022-10-15T03:39:13;9.20;99.90
33761;DHT22;20084;47.912;19.044;2022-10-15T03:41:39;9.20;99.90
33761;DHT22;20084;47.912;19.044;2022-10-15T03:44:06;9.20;99.90
33761;DHT22;20084;47.912;19.044;2022-10-15T03:46:33;9.20;99.90
33761;DHT22;20084;47.912;19.044;2022-10-15T03:48:59;9.10;99.90
33761;DHT22;20084;47.912;19.044;2022-10-15T03:51:25;9.10;99.90
33761;DHT22;20084;47.912;19.044;2022-10-15T03:53:51;9.00;99.90
33761;DHT22;20084;47.912;19.044;2022-10-15T03:56:17;9.00;99.90
33761;DHT22;20084;47.912;19.044;2022-10-15T03:58:43;8.90;99.90
33761;DHT22;20084;47.912;19.044;2022-10-15T04:01:13;8.90;99.90
33761;DHT22;20084;47.912;19.044;2022-10-15T04:03:40;8.80;99.90
33761;DHT22;20084;47.912;19.044;2022-10-15T04:06:06;8.80;99.90
33761;DHT22;20084;47.912;19.044;2022-10-15T04:08:32;8.90;99.90
33761;DHT22;20084;47.912;19.044;2022-10-15T04:10:58;8.90;99.90
33761;DHT22;20084;47.912;19.044;2022-10-15T04:13:25;8.90;99.90
33761;DHT22;20084;47.912;19.044;2022-10-15T04:15:50;8.90;99.90
33761;DHT22;20084;47.912;19.044;2022-10-15T04:18:16;8.90;99.90
33761;DHT22;20084;47.912;19.044;2022-10-15T04:20:41;8.90;99.90
33761;DHT22;20084;47.912;19.044;2022-10-15T04:23:08;8.90;99.90
33761;DHT22;20084;47.912;19.044;2022-10-15T04:25:35;8.90;99.90
33761;DHT22;20084;47.912;19.044;2022-10-15T04:28:01;8.90;99.90
33761;DHT22;20084;47.912;19.044;2022-10-15T04:30:27;8.80;99.90
33761;DHT22;20084;47.912;19.044;2022-10-15T04:32:53;8.70;99.90
33761;DHT22;20084;47.912;19.044;2022-10-15T04:35:19;8.70;99.90
33761;DHT22;20084;47.912;19.044;2022-10-15T04:37:45;8.60;99.90
33761;DHT22;20084;47.912;19.044;2022-10-15T04:40:10;8.60;99.90
33761;DHT22;20084;47.912;19.044;2022-10-15T04:42:37;8.50;99.90
33761;DHT22;20084;47.912;19.044;2022-10-15T04:45:02;8.60;99.90
33761;DHT22;20084;47.912;19.044;2022-10-15T04:47:28;8.70;99.90
33761;DHT22;20084;47.912;19.044;2022-10-15T04:49:54;8.80;99.90
33761;DHT22;20084;47.912;19.044;2022-10-15T04:52:19;8.70;99.90
33761;DHT22;20084;47.912;19.044;2022-10-15T04:54:45;8.60;99.90
33761;DHT22;20084;47.912;19.044;2022-10-15T04:57:11;8.50;99.90
33761;DHT22;20084;47.912;19.044;2022-10-15T04:59:36;8.50;99.90
33761;DHT22;20084;47.912;19.044;2022-10-15T05:02:02;8.50;99.90
33761;DHT22;20084;47.912;19.044;2022-10-15T05:04:28;8.60;99.90
33761;DHT22;20084;47.912;19.044;2022-10-15T05:06:53;8.60;99.90
33761;DHT22;20084;47.912;19.044;2022-10-15T05:09:19;8.50;99.90
33761;DHT22;20084;47.912;19.044;2022-10-15T05:11:45;8.40;99.90
33761;DHT22;20084;47.912;19.044;2022-10-15T05:14:10;8.40;99.90
33761;DHT22;20084;47.912;19.044;2022-10-15T05:16:36;8.40;99.90
33761;DHT22;20084;47.912;19.044;2022-10-15T05:19:05;8.50;99.90
33761;DHT22;20084;47.912;19.044;2022-10-15T05:21:32;8.50;99.90
33761;DHT22;20084;47.912;19.044;2022-10-15T05:23:58;8.50;99.90
33761;DHT22;20084;47.912;19.044;2022-10-15T05:26:26;8.50;99.90
33761;DHT22;20084;47.912;19.044;2022-10-15T05:28:52;8.50;99.90
33761;DHT22;20084;47.912;19.044;2022-10-15T05:31:20;8.40;99.90
33761;DHT22;20084;47.912;19.044;2022-10-15T05:33:47;8.40;99.90
33761;DHT22;20084;47.912;19.044;2022-10-15T05:36:22;8.30;99.90
33761;DHT22;20084;47.912;19.044;2022-10-15T05:38:50;8.30;99.90
33761;DHT22;20084;47.912;19.044;2022-10-15T05:41:17;8.10;99.90
33761;DHT22;20084;47.912;19.044;2022-10-15T05:43:45;8.00;99.90
33761;DHT22;20084;47.912;19.044;2022-10-15T05:46:10;8.00;99.90
33761;DHT22;20084;47.912;19.044;2022-10-15T05:48:36;8.10;99.90
33761;DHT22;20084;47.912;19.044;2022-10-15T05:51:07;8.20;99.90
33761;DHT22;20084;47.912;19.044;2022-10-15T05:53:33;8.20;99.90
33761;DHT22;20084;47.912;19.044;2022-10-15T05:55:59;8.30;99.90
33761;DHT22;20084;47.912;19.044;2022-10-15T05:58:25;8.30;99.90
33761;DHT22;20084;47.912;19.044;2022-10-15T06:00:59;8.40;99.90
33761;DHT22;20084;47.912;19.044;2022-10-15T06:03:26;8.50;99.90
33761;DHT22;20084;47.912;19.044;2022-10-15T06:05:52;8.50;99.90
33761;DHT22;20084;47.912;19.044;2022-10-15T06:08:19;8.70;99.90
33761;DHT22;20084;47.912;19.044;2022-10-15T06:10:45;8.80;99.90
33761;DHT22;20084;47.912;19.044;2022-10-15T06:13:11;8.80;99.90
33761;DHT22;20084;47.912;19.044;2022-10-15T06:15:44;8.80;99.90
33761;DHT22;20084;47.912;19.044;2022-10-15T06:18:11;8.90;99.90
33761;DHT22;20084;47.912;19.044;2022-10-15T06:20:41;8.90;99.90
33761;DHT22;20084;47.912;19.044;2022-10-15T06:23:08;8.90;99.90
33761;DHT22;20084;47.912;19.044;2022-10-15T06:25:33;9.10;99.90
33761;DHT22;20084;47.912;19.044;2022-10-15T06:28:05;9.20;99.90
33761;DHT22;20084;47.912;19.044;2022-10-15T06:30:32;9.30;99.90
33761;DHT22;20084;47.912;19.044;2022-10-15T06:32:57;9.50;99.90
33761;DHT22;20084;47.912;19.044;2022-10-15T06:35:24;9.60;99.90
33761;DHT22;20084;47.912;19.044;2022-10-15T06:37:51;9.70;99.90
33761;DHT22;20084;47.912;19.044;2022-10-15T06:40:17;9.80;99.90
33761;DHT22;20084;47.912;19.044;2022-10-15T06:42:43;9.90;99.90
33761;DHT22;20084;47.912;19.044;2022-10-15T06:45:09;10.00;99.90
33761;DHT22;20084;47.912;19.044;2022-10-15T06:47:35;10.10;99.90
33761;DHT22;20084;47.912;19.044;2022-10-15T06:50:02;10.10;99.90
33761;DHT22;20084;47.912;19.044;2022-10-15T06:52:29;10.30;99.90
33761;DHT22;20084;47.912;19.044;2022-10-15T06:54:55;10.40;99.90
33761;DHT22;20084;47.912;19.044;2022-10-15T06:57:20;10.60;99.90
33761;DHT22;20084;47.912;19.044;2022-10-15T06:59:46;10.80;99.90
33761;DHT22;20084;47.912;19.044;2022-10-15T07:02:12;11.00;99.90
33761;DHT22;20084;47.912;19.044;2022-10-15T07:04:42;11.20;99.90
33761;DHT22;20084;47.912;19.044;2022-10-15T07:07:08;11.30;99.90
33761;DHT22;20084;47.912;19.044;2022-10-15T07:09:33;11.50;99.90
33761;DHT22;20084;47.912;19.044;2022-10-15T07:11:59;11.80;99.90
33761;DHT22;20084;47.912;19.044;2022-10-15T07:14:25;12.10;99.90
33761;DHT22;20084;47.912;19.044;2022-10-15T07:16:51;12.50;99.90
33761;DHT22;20084;47.912;19.044;2022-10-15T07:19:17;12.80;99.90
33761;DHT22;20084;47.912;19.044;2022-10-15T07:21:42;13.00;99.90
33761;DHT22;20084;47.912;19.044;2022-10-15T07:24:08;13.30;99.90
33761;DHT22;20084;47.912;19.044;2022-10-15T07:26:33;13.40;99.90
33761;DHT22;20084;47.912;19.044;2022-10-15T07:28:59;13.60;99.90
33761;DHT22;20084;47.912;19.044;2022-10-15T07:31:25;13.70;99.90
33761;DHT22;20084;47.912;19.044;2022-10-15T07:33:51;13.90;99.90
33761;DHT22;20084;47.912;19.044;2022-10-15T07:36:16;14.00;99.90
33761;DHT22;20084;47.912;19.044;2022-10-15T07:38:45;14.20;99.90
33761;DHT22;20084;47.912;19.044;2022-10-15T07:41:11;14.30;99.90
33761;DHT22;20084;47.912;19.044;2022-10-15T07:43:37;14.40;99.90
33761;DHT22;20084;47.912;19.044;2022-10-15T07:46:03;14.50;99.90
33761;DHT22;20084;47.912;19.044;2022-10-15T07:48:29;14.50;99.90
33761;DHT22;20084;47.912;19.044;2022-10-15T07:50:56;14.60;99.90
33761;DHT22;20084;47.912;19.044;2022-10-15T07:53:22;14.70;99.90
33761;DHT22;20084;47.912;19.044;2022-10-15T07:55:48;14.80;99.90
33761;DHT22;20084;47.912;19.044;2022-10-15T07:58:14;14.90;99.90
33761;DHT22;20084;47.912;19.044;2022-10-15T08:00:40;15.00;99.90
33761;DHT22;20084;47.912;19.044;2022-10-15T08:03:05;15.20;99.90
33761;DHT22;20084;47.912;19.044;2022-10-15T08:05:32;15.30;99.90
33761;DHT22;20084;47.912;19.044;2022-10-15T08:07:58;15.40;99.90
33761;DHT22;20084;47.912;19.044;2022-10-15T08:10:24;15.50;99.90
33761;DHT22;20084;47.912;19.044;2022-10-15T08:12:50;15.60;99.90
33761;DHT22;20084;47.912;19.044;2022-10-15T08:15:15;15.70;99.90
33761;DHT22;20084;47.912;19.044;2022-10-15T08:17:41;15.80;99.90
33761;DHT22;20084;47.912;19.044;2022-10-15T08:20:07;15.90;99.90
33761;DHT22;20084;47.912;19.044;2022-10-15T08:22:33;15.90;99.90
33761;DHT22;20084;47.912;19.044;2022-10-15T08:24:58;15.80;99.90
33761;DHT22;20084;47.912;19.044;2022-10-15T08:27:24;15.80;99.90
33761;DHT22;20084;47.912;19.044;2022-10-15T08:29:50;15.80;99.90
33761;DHT22;20084;47.912;19.044;2022-10-15T08:32:16;15.80;99.90
33761;DHT22;20084;47.912;19.044;2022-10-15T08:34:41;15.90;99.90
33761;DHT22;20084;47.912;19.044;2022-10-15T08:37:07;16.00;99.90
33761;DHT22;20084;47.912;19.044;2022-10-15T08:39:32;16.00;99.90
33761;DHT22;20084;47.912;19.044;2022-10-15T08:42:02;16.10;99.90
33761;DHT22;20084;47.912;19.044;2022-10-15T08:44:34;16.20;99.90
33761;DHT22;20084;47.912;19.044;2022-10-15T08:47:09;16.30;99.90
33761;DHT22;20084;47.912;19.044;2022-10-15T08:49:51;16.50;99.90
33761;DHT22;20084;47.912;19.044;2022-10-15T08:52:25;16.60;99.90
33761;DHT22;20084;47.912;19.044;2022-10-15T08:54:54;16.60;99.90
33761;DHT22;20084;47.912;19.044;2022-10-15T09:00:16;16.70;99.90
33761;DHT22;20084;47.912;19.044;2022-10-15T09:06:13;16.90;99.90
33761;DHT22;20084;47.912;19.044;2022-10-15T09:14:25;17.30;99.90
33761;DHT22;20084;47.912;19.044;2022-10-15T09:16:53;17.30;99.90
33761;DHT22;20084;47.912;19.044;2022-10-15T09:19:21;17.40;99.90
33761;DHT22;20084;47.912;19.044;2022-10-15T09:21:49;17.40;99.90
33761;DHT22;20084;47.912;19.044;2022-10-15T09:24:22;17.50;99.90
33761;DHT22;20084;47.912;19.044;2022-10-15T09:32:20;17.50;99.90
33761;DHT22;20084;47.912;19.044;2022-10-15T09:37:25;17.70;99.90
33761;DHT22;20084;47.912;19.044;2022-10-15T09:42:35;18.00;99.90
33761;DHT22;20084;47.912;19.044;2022-10-15T09:45:13;18.10;99.90
33761;DHT22;20084;47.912;19.044;2022-10-15T09:47:41;18.20;99.90
33761;DHT22;20084;47.912;19.044;2022-10-15T09:50:09;18.20;99.90
33761;DHT22;20084;47.912;19.044;2022-10-15T09:53:03;18.20;99.90
33761;DHT22;20084;47.912;19.044;2022-10-15T09:58:23;18.30;99.90
33761;DHT22;20084;47.912;19.044;2022-10-15T10:03:17;18.20;99.90
33761;DHT22;20084;47.912;19.044;2022-10-15T10:05:44;18.30;99.90
33761;DHT22;20084;47.912;19.044;2022-10-15T10:08:20;18.30;99.90
33761;DHT22;20084;47.912;19.044;2022-10-15T10:11:02;18.30;99.90
33761;DHT22;20084;47.912;19.044;2022-10-15T10:13:44;18.30;99.90
33761;DHT22;20084;47.912;19.044;2022-10-15T10:16:12;18.30;99.90
33761;DHT22;20084;47.912;19.044;2022-10-15T10:18:38;18.30;99.90
33761;DHT22;20084;47.912;19.044;2022-10-15T10:21:21;18.30;99.90
33761;DHT22;20084;47.912;19.044;2022-10-15T10:23:47;18.40;99.90
33761;DHT22;20084;47.912;19.044;2022-10-15T10:26:12;18.50;99.90
33761;DHT22;20084;47.912;19.044;2022-10-15T10:28:54;18.50;99.90
33761;DHT22;20084;47.912;19.044;2022-10-15T10:31:32;18.50;99.90
33761;DHT22;20084;47.912;19.044;2022-10-15T10:34:01;18.60;99.90
33761;DHT22;20084;47.912;19.044;2022-10-15T10:36:30;18.50;99.90
33761;DHT22;20084;47.912;19.044;2022-10-15T10:39:25;18.50;99.90
33761;DHT22;20084;47.912;19.044;2022-10-15T10:49:41;18.30;99.90
33761;DHT22;20084;47.912;19.044;2022-10-15T10:52:28;18.20;99.90
33761;DHT22;20084;47.912;19.044;2022-10-15T10:55:18;18.20;99.90
33761;DHT22;20084;47.912;19.044;2022-10-15T10:57:58;18.20;99.90
33761;DHT22;20084;47.912;19.044;2022-10-15T11:00:37;18.20;99.90
33761;DHT22;20084;47.912;19.044;2022-10-15T11:03:04;18.30;99.90
33761;DHT22;20084;47.912;19.044;2022-10-15T11:05:33;18.30;99.90
33761;DHT22;20084;47.912;19.044;2022-10-15T11:08:19;18.10;99.90
33761;DHT22;20084;47.912;19.044;2022-10-15T11:10:59;18.10;99.90
33761;DHT22;20084;47.912;19.044;2022-10-15T11:22:13;17.90;99.90
33761;DHT22;20084;47.912;19.044;2022-10-15T11:24:52;17.80;99.90
33761;DHT22;20084;47.912;19.044;2022-10-15T11:30:21;17.60;99.90
33761;DHT22;20084;47.912;19.044;2022-10-15T11:33:08;17.60;99.90
33761;DHT22;20084;47.912;19.044;2022-10-15T11:35:48;17.60;99.90
33761;DHT22;20084;47.912;19.044;2022-10-15T11:38:20;17.70;99.90
33761;DHT22;20084;47.912;19.044;2022-10-15T11:43:54;17.80;99.90
33761;DHT22;20084;47.912;19.044;2022-10-15T11:49:42;17.90;99.90
33761;DHT22;20084;47.912;19.044;2022-10-15T11:55:16;17.90;99.90
33761;DHT22;20084;47.912;19.044;2022-10-15T11:57:44;17.80;99.90
33761;DHT22;20084;47.912;19.044;2022-10-15T12:00:42;17.80;99.90
33761;DHT22;20084;47.912;19.044;2022-10-15T12:03:16;17.80;99.90
33761;DHT22;20084;47.912;19.044;2022-10-15T12:05:51;17.80;99.90
33761;DHT22;20084;47.912;19.044;2022-10-15T12:08:18;17.70;99.90
33761;DHT22;20084;47.912;19.044;2022-10-15T12:18:56;17.80;99.90
33761;DHT22;20084;47.912;19.044;2022-10-15T12:21:59;17.80;99.90
33761;DHT22;20084;47.912;19.044;2022-10-15T12:30:19;17.80;99.90
33761;DHT22;20084;47.912;19.044;2022-10-15T12:35:30;17.60;99.90
33761;DHT22;20084;47.912;19.044;2022-10-15T12:38:09;17.60;99.90
33761;DHT22;20084;47.912;19.044;2022-10-15T12:40:37;17.60;99.90
33761;DHT22;20084;47.912;19.044;2022-10-15T12:43:16;17.60;99.90
33761;DHT22;20084;47.912;19.044;2022-10-15T12:45:53;17.70;99.90
33761;DHT22;20084;47.912;19.044;2022-10-15T12:53:50;17.80;99.90
33761;DHT22;20084;47.912;19.044;2022-10-15T12:58:52;17.80;99.90
33761;DHT22;20084;47.912;19.044;2022-10-15T13:06:22;17.70;99.90
33761;DHT22;20084;47.912;19.044;2022-10-15T13:11:52;17.80;99.90
33761;DHT22;20084;47.912;19.044;2022-10-15T13:14:27;17.80;99.90
33761;DHT22;20084;47.912;19.044;2022-10-15T13:16:53;17.80;99.90
33761;DHT22;20084;47.912;19.044;2022-10-15T13:19:38;17.80;99.90
33761;DHT22;20084;47.912;19.044;2022-10-15T13:22:15;17.70;99.90
33761;DHT22;20084;47.912;19.044;2022-10-15T13:24:44;17.70;99.90
33761;DHT22;20084;47.912;19.044;2022-10-15T13:27:34;17.70;99.90
33761;DHT22;20084;47.912;19.044;2022-10-15T13:30:13;17.80;99.90
33761;DHT22;20084;47.912;19.044;2022-10-15T13:32:44;17.80;99.90
33761;DHT22;20084;47.912;19.044;2022-10-15T13:35:15;17.70;99.90
33761;DHT22;20084;47.912;19.044;2022-10-15T13:37:42;17.70;99.90
33761;DHT22;20084;47.912;19.044;2022-10-15T13:40:20;17.80;99.90
33761;DHT22;20084;47.912;19.044;2022-10-15T13:43:03;17.80;99.90
33761;DHT22;20084;47.912;19.044;2022-10-15T13:45:30;17.80;99.90
33761;DHT22;20084;47.912;19.044;2022-10-15T13:47:56;17.80;99.90
33761;DHT22;20084;47.912;19.044;2022-10-15T13:50:26;17.90;99.90
33761;DHT22;20084;47.912;19.044;2022-10-15T13:53:10;17.90;99.90
33761;DHT22;20084;47.912;19.044;2022-10-15T13:55:43;17.90;99.90
33761;DHT22;20084;47.912;19.044;2022-10-15T13:58:23;17.90;99.90
33761;DHT22;20084;47.912;19.044;2022-10-15T14:01:13;17.90;99.90
33761;DHT22;20084;47.912;19.044;2022-10-15T14:03:45;17.90;99.90
33761;DHT22;20084;47.912;19.044;2022-10-15T14:08:44;17.90;99.90
33761;DHT22;20084;47.912;19.044;2022-10-15T14:11:12;17.90;99.90
33761;DHT22;20084;47.912;19.044;2022-10-15T14:13:49;17.90;99.90
33761;DHT22;20084;47.912;19.044;2022-10-15T14:21:31;17.80;99.90
33761;DHT22;20084;47.912;19.044;2022-10-15T14:24:22;17.80;99.90
33761;DHT22;20084;47.912;19.044;2022-10-15T14:26:49;17.80;99.90
33761;DHT22;20084;47.912;19.044;2022-10-15T14:29:25;17.80;99.90
33761;DHT22;20084;47.912;19.044;2022-10-15T14:31:51;17.80;99.90
33761;DHT22;20084;47.912;19.044;2022-10-15T14:34:34;17.80;99.90
33761;DHT22;20084;47.912;19.044;2022-10-15T14:37:01;17.80;99.90
33761;DHT22;20084;47.912;19.044;2022-10-15T14:39:31;17.80;99.90
33761;DHT22;20084;47.912;19.044;2022-10-15T14:42:03;17.80;99.90
33761;DHT22;20084;47.912;19.044;2022-10-15T14:44:47;17.70;99.90
33761;DHT22;20084;47.912;19.044;2022-10-15T14:47:20;17.70;99.90
33761;DHT22;20084;47.912;19.044;2022-10-15T14:49:48;17.70;99.90
33761;DHT22;20084;47.912;19.044;2022-10-15T14:52:16;17.70;99.90
33761;DHT22;20084;47.912;19.044;2022-10-15T14:55:00;17.70;99.90
33761;DHT22;20084;47.912;19.044;2022-10-15T14:57:27;17.70;99.90
33761;DHT22;20084;47.912;19.044;2022-10-15T14:59:55;17.70;99.90
33761;DHT22;20084;47.912;19.044;2022-10-15T15:02:23;17.60;99.90
33761;DHT22;20084;47.912;19.044;2022-10-15T15:07:38;17.60;99.90
33761;DHT22;20084;47.912;19.044;2022-10-15T15:10:06;17.60;99.90
33761;DHT22;20084;47.912;19.044;2022-10-15T15:12:32;17.60;99.90
33761;DHT22;20084;47.912;19.044;2022-10-15T15:14:59;17.60;99.90
33761;DHT22;20084;47.912;19.044;2022-10-15T15:17:26;17.50;99.90
33761;DHT22;20084;47.912;19.044;2022-10-15T15:19:54;17.50;99.90
33761;DHT22;20084;47.912;19.044;2022-10-15T15:22:38;17.50;99.90
33761;DHT22;20084;47.912;19.044;2022-10-15T15:27:41;17.30;99.90
33761;DHT22;20084;47.912;19.044;2022-10-15T15:30:14;17.30;99.90
33761;DHT22;20084;47.912;19.044;2022-10-15T15:32:40;17.30;99.90
33761;DHT22;20084;47.912;19.044;2022-10-15T15:37:39;17.20;99.90
33761;DHT22;20084;47.912;19.044;2022-10-15T15:40:05;17.20;99.90
33761;DHT22;20084;47.912;19.044;2022-10-15T15:42:32;17.20;99.90
33761;DHT22;20084;47.912;19.044;2022-10-15T15:44:57;17.10;99.90
33761;DHT22;20084;47.912;19.044;2022-10-15T15:47:23;17.00;99.90
33761;DHT22;20084;47.912;19.044;2022-10-15T15:49:48;17.00;99.90
33761;DHT22;20084;47.912;19.044;2022-10-15T15:52:14;17.00;99.90
33761;DHT22;20084;47.912;19.044;2022-10-15T15:54:43;16.90;99.90
33761;DHT22;20084;47.912;19.044;2022-10-15T15:57:12;16.70;99.90
33761;DHT22;20084;47.912;19.044;2022-10-15T15:59:38;16.60;99.90
33761;DHT22;20084;47.912;19.044;2022-10-15T16:02:04;16.50;99.90
33761;DHT22;20084;47.912;19.044;2022-10-15T16:04:30;16.40;99.90
33761;DHT22;20084;47.912;19.044;2022-10-15T16:06:55;16.40;99.90
33761;DHT22;20084;47.912;19.044;2022-10-15T16:09:21;16.40;99.90
33761;DHT22;20084;47.912;19.044;2022-10-15T16:11:48;16.30;99.90
33761;DHT22;20084;47.912;19.044;2022-10-15T16:14:14;16.30;99.90
33761;DHT22;20084;47.912;19.044;2022-10-15T16:16:40;16.30;99.90
33761;DHT22;20084;47.912;19.044;2022-10-15T16:19:06;16.20;99.90
33761;DHT22;20084;47.912;19.044;2022-10-15T16:21:32;16.20;99.90
33761;DHT22;20084;47.912;19.044;2022-10-15T16:23:58;16.20;99.90
33761;DHT22;20084;47.912;19.044;2022-10-15T16:26:24;16.10;99.90
33761;DHT22;20084;47.912;19.044;2022-10-15T16:28:50;16.10;99.90
33761;DHT22;20084;47.912;19.044;2022-10-15T16:31:19;16.00;99.90
33761;DHT22;20084;47.912;19.044;2022-10-15T16:33:46;16.00;99.90
33761;DHT22;20084;47.912;19.044;2022-10-15T16:36:12;15.90;99.90
33761;DHT22;20084;47.912;19.044;2022-10-15T16:38:39;15.90;99.90
33761;DHT22;20084;47.912;19.044;2022-10-15T16:41:05;15.90;99.90
33761;DHT22;20084;47.912;19.044;2022-10-15T16:43:32;15.80;99.90
33761;DHT22;20084;47.912;19.044;2022-10-15T16:45:58;15.70;99.90
33761;DHT22;20084;47.912;19.044;2022-10-15T16:48:24;15.60;99.90
33761;DHT22;20084;47.912;19.044;2022-10-15T16:51:12;15.60;99.90
33761;DHT22;20084;47.912;19.044;2022-10-15T16:53:39;15.60;99.90
33761;DHT22;20084;47.912;19.044;2022-10-15T16:56:09;15.50;99.90
33761;DHT22;20084;47.912;19.044;2022-10-15T16:58:36;15.50;99.90
33761;DHT22;20084;47.912;19.044;2022-10-15T17:01:06;15.40;99.90
33761;DHT22;20084;47.912;19.044;2022-10-15T17:03:34;15.40;99.90
33761;DHT22;20084;47.912;19.044;2022-10-15T17:06:02;15.40;99.90
33761;DHT22;20084;47.912;19.044;2022-10-15T17:08:46;15.50;99.90
33761;DHT22;20084;47.912;19.044;2022-10-15T17:13:50;15.50;99.90
33761;DHT22;20084;47.912;19.044;2022-10-15T17:16:18;15.60;99.90
33761;DHT22;20084;47.912;19.044;2022-10-15T17:18:45;15.50;99.90
33761;DHT22;20084;47.912;19.044;2022-10-15T17:21:14;15.50;99.90
33761;DHT22;20084;47.912;19.044;2022-10-15T17:23:40;15.50;99.90
33761;DHT22;20084;47.912;19.044;2022-10-15T17:26:08;15.50;99.90
33761;DHT22;20084;47.912;19.044;2022-10-15T17:28:34;15.40;99.90
33761;DHT22;20084;47.912;19.044;2022-10-15T17:31:05;15.40;99.90
33761;DHT22;20084;47.912;19.044;2022-10-15T17:33:33;15.30;99.90
33761;DHT22;20084;47.912;19.044;2022-10-15T17:36:09;15.30;99.90
33761;DHT22;20084;47.912;19.044;2022-10-15T17:38:35;15.20;99.90
33761;DHT22;20084;47.912;19.044;2022-10-15T17:41:09;15.30;99.90